Time;durP1;ratioP1;P1;durP2;ratioP2;P2;SDS_P1;SDS_P2;PMS_P1;PMS_P2;Temp;Humidity;BMP_temperature;BMP_pressure;BME280_temperature;BME280_humidity;BME280_pressure;Samples;Min_cycle;Max_cycle;Signal;HPM_P1;HPM_P2
2022/06/09 00:03:58;;;;;;;;;;;;;;;13.56;73.94531;100798.5;;;;-81
2022/06/09 00:08:56;;;;;;;;;;;;;;;13.55;74.06641;100802;;;;-82
2022/06/09 00:12:22;;;;;;;6.1;1.8;;;;;;;;;;;;;-81
2022/06/09 00:13:57;;;;;;;;;;;;;;;13.52;74.10645;100805.8;;;;-83
2022/06/09 00:18:56;;;;;;;;;;;;;;;13.52;74.17285;100810.4;;;;-83
2022/06/09 00:23:55;;;;;;;;;;;;;;;13.51;74.33887;100816.1;;;;-82
2022/06/09 00:28:56;;;;;;;;;;;;;;;13.5;74.5166;100819.1;;;;-83
2022/06/09 00:33:55;;;;;;;;;;;;;;;13.48;74.25684;100821.8;;;;-82
2022/06/09 00:38:55;;;;;;;;;;;;;;;13.48;74.24414;100822.8;;;;-83
2022/06/09 00:42:18;;;;;;;7.7;1.8;;;;;;;;;;;;;-82
2022/06/09 00:43:58;;;;;;;;;;;;;;;13.44;74.23926;100830.5;;;;-80
2022/06/09 00:48:57;;;;;;;;;;;;;;;13.44;74.31738;100835.8;;;;-81
2022/06/09 00:53:59;;;;;;;;;;;;;;;13.44;74.3623;100839.3;;;;-80
2022/06/09 00:58:56;;;;;;;;;;;;;;;13.44;74.62793;100847.4;;;;-83
2022/06/09 01:04:01;;;;;;;;;;;;;;;13.43;74.61523;100854.7;;;;-84
2022/06/09 01:09:00;;;;;;;;;;;;;;;13.42;74.44629;100854.6;;;;-83
2022/06/09 01:12:30;;;;;;;5;1.4;;;;;;;;;;;;;-83
2022/06/09 01:13:55;;;;;;;;;;;;;;;13.43;74.71484;100861.3;;;;-82
2022/06/09 01:18:59;;;;;;;;;;;;;;;13.43;74.60254;100862.3;;;;-81
2022/06/09 01:24:16;;;;;;;;;;;;;;;13.4;74.62207;100866.7;;;;-83
2022/06/09 01:29:22;;;;;;;;;;;;;;;13.39;74.67676;100863.9;;;;-81
2022/06/09 01:33:59;;;;;;;;;;;;;;;13.38;74.58496;100871;;;;-83
2022/06/09 01:38:57;;;;;;;;;;;;;;;13.37;74.43945;100878;;;;-83
2022/06/09 01:42:34;;;;;;;5;1.5;;;;;;;;;;;;;-81
2022/06/09 01:43:56;;;;;;;;;;;;;;;13.34;74.45703;100881.7;;;;-82
2022/06/09 01:48:57;;;;;;;;;;;;;;;13.31;74.4375;100881.6;;;;-81
2022/06/09 01:53:57;;;;;;;;;;;;;;;13.26;74.56348;100879.6;;;;-80
2022/06/09 01:58:58;;;;;;;;;;;;;;;13.2;74.20898;100875;;;;-81
2022/06/09 02:04:00;;;;;;;;;;;;;;;13.18;74.14844;100876.5;;;;-83
2022/06/09 02:08:56;;;;;;;;;;;;;;;13.1;74.19238;100877.2;;;;-81
2022/06/09 02:12:26;;;;;;;5.2;1.6;;;;;;;;;;;;;-82
2022/06/09 02:13:56;;;;;;;;;;;;;;;13.04;74.11621;100880.9;;;;-83
2022/06/09 02:18:57;;;;;;;;;;;;;;;12.98;73.9375;100884.4;;;;-82
2022/06/09 02:23:55;;;;;;;;;;;;;;;12.92;74.33984;100887.9;;;;-81
2022/06/09 02:28:55;;;;;;;;;;;;;;;12.87;74.66602;100895.9;;;;-81
2022/06/09 02:33:56;;;;;;;;;;;;;;;12.8;74.55371;100903.2;;;;-82
2022/06/09 02:38:55;;;;;;;;;;;;;;;12.75;74.62207;100910.9;;;;-82
2022/06/09 02:42:23;;;;;;;5.1;1.6;;;;;;;;;;;;;-81
2022/06/09 02:43:55;;;;;;;;;;;;;;;12.69;74.65723;100910.1;;;;-82
2022/06/09 02:48:56;;;;;;;;;;;;;;;12.61;74.4082;100912.8;;;;-81
2022/06/09 02:53:55;;;;;;;;;;;;;;;12.55;74.44531;100917.3;;;;-81
2022/06/09 02:58:56;;;;;;;;;;;;;;;12.48;74.27539;100928.1;;;;-82
2022/06/09 03:03:55;;;;;;;;;;;;;;;12.44;74.40234;100935.7;;;;-82
2022/06/09 03:08:58;;;;;;;;;;;;;;;12.38;74.57031;100947;;;;-82
2022/06/09 03:12:26;;;;;;;4.7;2;;;;;;;;;;;;;-81
2022/06/09 03:13:55;;;;;;;;;;;;;;;12.35;74.67676;100951.7;;;;-80
2022/06/09 03:18:55;;;;;;;;;;;;;;;12.32;74.66211;100960.4;;;;-82
2022/06/09 03:23:57;;;;;;;;;;;;;;;12.3;74.40137;100970.4;;;;-81
2022/06/09 03:28:58;;;;;;;;;;;;;;;12.27;74.28613;100970.4;;;;-81
2022/06/09 03:33:56;;;;;;;;;;;;;;;12.26;74.34961;100979.3;;;;-82
2022/06/09 03:38:58;;;;;;;;;;;;;;;12.23;74.06641;100992.8;;;;-82
2022/06/09 03:42:26;;;;;;;3.6;1.6;;;;;;;;;;;;;-80
2022/06/09 03:43:55;;;;;;;;;;;;;;;12.2;73.88379;100996.1;;;;-81
2022/06/09 03:49:04;;;;;;;;;;;;;;;12.17;73.83496;101004.8;;;;-80
2022/06/09 03:54:07;;;;;;;;;;;;;;;12.17;73.92285;101012.4;;;;-82
2022/06/09 03:58:55;;;;;;;;;;;;;;;12.16;73.88867;101021.6;;;;-80
2022/06/09 04:03:55;;;;;;;;;;;;;;;12.16;73.8877;101028.3;;;;-81
2022/06/09 04:08:56;;;;;;;;;;;;;;;12.15;73.49805;101033.8;;;;-82
2022/06/09 04:12:27;;;;;;;3.9;1.6;;;;;;;;;;;;;-81
2022/06/09 04:13:55;;;;;;;;;;;;;;;12.16;73.58887;101039.8;;;;-82
2022/06/09 04:18:55;;;;;;;;;;;;;;;12.16;73.5332;101047.3;;;;-82
2022/06/09 04:23:55;;;;;;;;;;;;;;;12.17;73.36816;101050.7;;;;-81
2022/06/09 04:28:56;;;;;;;;;;;;;;;12.19;73.4375;101051.8;;;;-82
2022/06/09 04:33:55;;;;;;;;;;;;;;;12.21;73.58496;101056.1;;;;-81
2022/06/09 04:38:56;;;;;;;;;;;;;;;12.27;73.3623;101056.5;;;;-78
2022/06/09 04:42:29;;;;;;;4.2;1.3;;;;;;;;;;;;;-81
2022/06/09 04:43:57;;;;;;;;;;;;;;;12.32;73.18164;101059.3;;;;-83
2022/06/09 04:48:55;;;;;;;;;;;;;;;12.36;73.28711;101062.4;;;;-82
2022/06/09 04:53:55;;;;;;;;;;;;;;;12.4;72.78223;101066.6;;;;-81
2022/06/09 04:58:57;;;;;;;;;;;;;;;12.46;73.04883;101086.8;;;;-82
2022/06/09 05:03:56;;;;;;;;;;;;;;;12.54;72.92871;101097.3;;;;-82
2022/06/09 05:08:56;;;;;;;;;;;;;;;12.62;73.05273;101113.4;;;;-82
2022/06/09 05:12:30;;;;;;;4.5;1.4;;;;;;;;;;;;;-81
2022/06/09 05:13:56;;;;;;;;;;;;;;;12.71;73.70313;101113.5;;;;-82
2022/06/09 05:18:55;;;;;;;;;;;;;;;12.88;74.05469;101123.3;;;;-82
2022/06/09 05:23:55;;;;;;;;;;;;;;;13.22;73.0293;101127;;;;-81
2022/06/09 05:28:55;;;;;;;;;;;;;;;13.81;72.44629;101123.4;;;;-81
2022/06/09 05:33:55;;;;;;;;;;;;;;;14.54;71.30078;101137.5;;;;-82
2022/06/09 05:48:55;;;;;;;;;;;;;;;15.5;68.62793;101175.5;;;;-83
2022/06/09 05:53:56;;;;;;;;;;;;;;;15.48;68.75879;101182.7;;;;-82
2022/06/09 05:58:55;;;;;;;;;;;;;;;15.48;68.73828;101183.6;;;;-81
2022/06/09 06:03:58;;;;;;;;;;;;;;;15.49;68.82813;101194.6;;;;-82
2022/06/09 06:12:34;;;;;;;5.9;1.2;;;;;;;;;;;;;-82
2022/06/09 06:13:55;;;;;;;;;;;;;;;15.84;68.75977;101209.4;;;;-80
2022/06/09 06:18:57;;;;;;;;;;;;;;;16.51;67.23047;101217;;;;-83
2022/06/09 06:23:55;;;;;;;;;;;;;;;17.23;65.54688;101224;;;;-83
2022/06/09 06:28:56;;;;;;;;;;;;;;;17.84;64.41699;101226.9;;;;-82
2022/06/09 06:33:55;;;;;;;;;;;;;;;18.39;63.18262;101234.7;;;;-83
2022/06/09 06:38:57;;;;;;;;;;;;;;;18.86;62.30859;101253;;;;-84
2022/06/09 06:42:37;;;;;;;4.1;1.1;;;;;;;;;;;;;-77
2022/06/09 06:43:57;;;;;;;;;;;;;;;19.28;61.43555;101261.9;;;;-75
2022/06/09 06:48:55;;;;;;;;;;;;;;;19.66;60.71582;101264.9;;;;-75
2022/06/09 06:54:04;;;;;;;;;;;;;;;20.03;59.9248;101279.3;;;;-77
2022/06/09 06:59:04;;;;;;;;;;;;;;;20.35;59.35352;101284.9;;;;-77
2022/06/09 07:03:55;;;;;;;;;;;;;;;20.68;58.7373;101284.9;;;;-79
2022/06/09 07:08:55;;;;;;;;;;;;;;;21;57.97949;101291.9;;;;-79
2022/06/09 07:12:38;;;;;;;4.2;1.1;;;;;;;;;;;;;-80
2022/06/09 07:13:56;;;;;;;;;;;;;;;21.26;57.60254;101303.4;;;;-79
2022/06/09 07:18:55;;;;;;;;;;;;;;;21.53;56.96484;101303.2;;;;-81
2022/06/09 07:23:58;;;;;;;;;;;;;;;21.76;56.13672;101309.4;;;;-79
2022/06/09 07:28:56;;;;;;;;;;;;;;;21.94;55.75781;101317.4;;;;-80
2022/06/09 07:34:01;;;;;;;;;;;;;;;22.16;55.25977;101322.2;;;;-80
2022/06/09 07:38:55;;;;;;;;;;;;;;;22.28;54.88574;101335.3;;;;-81
2022/06/09 07:42:41;;;;;;;3.8;1.2;;;;;;;;;;;;;-80
2022/06/09 07:43:58;;;;;;;;;;;;;;;22.27;54.48242;101335.6;;;;-80
2022/06/09 07:48:58;;;;;;;;;;;;;;;22.33;54.37598;101339.8;;;;-79
2022/06/09 07:53:56;;;;;;;;;;;;;;;22.54;54.18359;101344.5;;;;-80
2022/06/09 07:58:55;;;;;;;;;;;;;;;22.71;53.72266;101351.1;;;;-79
2022/06/09 08:03:57;;;;;;;;;;;;;;;22.83;53.3125;101354.9;;;;-79
2022/06/09 08:08:56;;;;;;;;;;;;;;;23.09;53.10254;101361.2;;;;-80
2022/06/09 08:12:44;;;;;;;5.2;1.1;;;;;;;;;;;;;-80
2022/06/09 08:13:56;;;;;;;;;;;;;;;23.27;52.56055;101364.8;;;;-81
2022/06/09 08:18:57;;;;;;;;;;;;;;;23.37;52.49219;101368.8;;;;-79
2022/06/09 08:23:59;;;;;;;;;;;;;;;23.44;52.05273;101381.1;;;;-80
2022/06/09 08:28:57;;;;;;;;;;;;;;;23.51;51.89844;101392.9;;;;-81
2022/06/09 08:33:58;;;;;;;;;;;;;;;23.55;51.66309;101403.4;;;;-78
2022/06/09 08:38:57;;;;;;;;;;;;;;;23.53;51.61621;101412.2;;;;-81
2022/06/09 08:42:52;;;;;;;5;1.1;;;;;;;;;;;;;-89
2022/06/09 08:43:59;;;;;;;;;;;;;;;23.71;51.51953;101421.6;;;;-85
2022/06/09 08:49:02;;;;;;;;;;;;;;;23.85;50.85645;101426.1;;;;-85
2022/06/09 10:14:11;;;;;;;;;;;;;;;26.75;46.45801;101535.5;;;;-87
2022/06/09 10:18:31;;;;;;;;;;;;;;;26.5;47.04688;101534.4;;;;-85
2022/06/09 10:23:57;;;;;;;;;;;;;;;26.54;46.75098;101544.6;;;;-88
2022/06/09 10:28:34;;;;;;;;;;;;;;;26.63;46.78223;101552.5;;;;-87
2022/06/09 10:33:40;;;;;;;;;;;;;;;26.75;46.22656;101549.5;;;;-87
2022/06/09 10:38:42;;;;;;;;;;;;;;;26.86;46.09961;101555.9;;;;-88
2022/06/09 10:43:14;;;;;;;7;1.5;;;;;;;;;;;;;-86
2022/06/09 10:43:47;;;;;;;;;;;;;;;26.97;45.78516;101549.5;;;;-87
2022/06/09 10:58:48;;;;;;;;;;;;;;;;;;;;;
2022/06/09 11:08:40;;;;;;;;;;;;;;;27.89;45.58789;101588.9;;;;-89
2022/06/09 11:13:30;;;;;;;4.3;1.7;;;;;;;;;;;;;-87
2022/06/09 11:13:50;;;;;;;;;;;;;;;27.94;45.18555;101597.3;;;;-87
2022/06/09 11:18:55;;;;;;;;;;;;;;;27.99;45.5166;101595.7;;;;-88
2022/06/09 11:23:38;;;;;;;;;;;;;;;28.12;45.47168;101607.5;;;;-87
2022/06/09 11:37:05;;;;;;;;;;;;;;;28.86;44.82422;101607;;;;-88
2022/06/09 11:43:49;;;;;;;;;;;;;;;;;;;;;
2022/06/09 11:44:55;;;;;;;;;;;;;;;28.66;45.60645;101606.2;;;;-87
2022/06/09 11:49:28;;;;;;;;;;;;;;;28.76;44.65039;101605.7;;;;-88
2022/06/09 11:55:17;;;;;;;;;;;;;;;29.32;44.12207;101610.9;;;;-89
2022/06/09 12:11:42;;;;;;;;;;;;;;;29.45;44.3916;101615.4;;;;-89
2022/06/09 12:13:35;;;;;;;5.7;1.4;;;;;;;;;;;;;-90
2022/06/09 12:15:35;;;;;;;;;;;;;;;29.72;43.74023;101620.8;;;;-88
2022/06/09 12:34:11;;;;;;;;;;;;;;;29.33;44.63672;101640.1;;;;-89
2022/06/09 12:39:08;;;;;;;;;;;;;;;29.38;43.94141;101648.3;;;;-89
2022/06/09 13:26:48;;;;;;;;;;;;;;;30.21;43.30859;101702.8;;;;-83
2022/06/09 13:31:44;;;;;;;;;;;;;;;30.23;43.0293;101709.5;;;;-83
2022/06/09 13:36:51;;;;;;;;;;;;;;;30.48;42.58398;101711;;;;-81
2022/06/09 13:43:46;;;;;;;6.9;1.5;;;;;;;;;;;;;-82
2022/06/09 13:51:19;;;;;;;;;;;;;;;30.09;41.75293;101734.5;;;;-82
2022/06/09 13:56:22;;;;;;;;;;;;;;;30.15;41.34863;101745.5;;;;-82
2022/06/09 14:01:27;;;;;;;;;;;;;;;30.16;41.51465;101751.2;;;;-83
2022/06/09 14:11:19;;;;;;;;;;;;;;;30.58;41.27051;101763.6;;;;-82
2022/06/09 14:13:39;;;;;;;6.8;1.5;;;;;;;;;;;;;-82
2022/06/09 14:15:03;;;;;;;;;;;;;;;30.3;41.08105;101767.6;;;;-83
2022/06/09 14:25:06;;;;;;;;;;;;;;;30.38;40.83105;101770.3;;;;-82
2022/06/09 14:30:15;;;;;;;;;;;;;;;;;;;;;
2022/06/09 14:40:11;;;;;;;;;;;;;;;30.56;39.86328;101789;;;;-83
2022/06/09 14:44:04;;;;;;;7.4;1.2;;;;;;;;;;;;;-82
2022/06/09 14:53:52;;;;;;;;;;;;;;;30.56;39.67578;101796.5;;;;-81
2022/06/09 14:58:59;;;;;;;;;;;;;;;30.54;38.94824;101800.3;;;;-82
2022/06/09 15:09:06;;;;;;;;;;;;;;;30.5;38.94434;101813.6;;;;-82
2022/06/09 15:34:02;;;;;;;;;;;;;;;24.86;35.23145;101831.9;;;;-74
2022/06/09 15:37:47;;;;;;;;;;;;;;;24.66;36.51172;101829;;;;-75
2022/06/09 15:42:46;;;;;;;;;;;;;;;24.48;37.41211;101836.3;;;;-75
2022/06/09 15:43:46;;;;;;;7.3;1.2;;;;;;;;;;;;;-75
2022/06/09 15:47:46;;;;;;;;;;;;;;;24.64;37.04297;101829.7;;;;-76
2022/06/09 15:52:46;;;;;;;;;;;;;;;24.14;36.45801;101830.4;;;;-77
2022/06/09 15:57:46;;;;;;;;;;;;;;;23.8;36.24609;101835.9;;;;-78
2022/06/09 16:02:46;;;;;;;;;;;;;;;23.21;37.44434;101837;;;;-77
2022/06/09 16:07:47;;;;;;;;;;;;;;;23.3;37.19824;101836.4;;;;-79
2022/06/09 16:12:46;;;;;;;;;;;;;;;23.09;37.80273;101836.3;;;;-81
2022/06/09 16:13:50;;;;;;;4.3;1.1;;;;;;;;;;;;;-81
2022/06/09 16:17:46;;;;;;;;;;;;;;;23.2;37.88184;101838.5;;;;-79
2022/06/09 16:22:46;;;;;;;;;;;;;;;23.35;36.85547;101842.1;;;;-78
2022/06/09 16:27:46;;;;;;;;;;;;;;;23.18;37.38379;101847.5;;;;-79
2022/06/09 16:32:46;;;;;;;;;;;;;;;22.97;37.55078;101844.8;;;;-81
2022/06/09 16:37:46;;;;;;;;;;;;;;;23.01;38.08496;101845.7;;;;-78
2022/06/09 16:42:48;;;;;;;;;;;;;;;22.82;38.1377;101842.4;;;;-81
2022/06/09 16:43:53;;;;;;;3.5;1.1;;;;;;;;;;;;;-77
2022/06/09 16:47:50;;;;;;;;;;;;;;;22.8;38.51563;101844.2;;;;-82
2022/06/09 16:52:46;;;;;;;;;;;;;;;22.72;38.30176;101849.5;;;;-81
2022/06/09 16:58:00;;;;;;;;;;;;;;;22.52;38.6416;101856.1;;;;-79
2022/06/09 17:02:46;;;;;;;;;;;;;;;22.34;39.04004;101856.8;;;;-76
2022/06/09 17:07:47;;;;;;;;;;;;;;;22.17;39.23145;101861.8;;;;-79
2022/06/09 17:12:46;;;;;;;;;;;;;;;22.11;39.42285;101870;;;;-82
2022/06/09 17:13:57;;;;;;;8;1.3;;;;;;;;;;;;;-82
2022/06/09 17:17:49;;;;;;;;;;;;;;;21.99;39.56152;101873.7;;;;-77
2022/06/09 17:22:46;;;;;;;;;;;;;;;21.96;39.65039;101873.3;;;;-78
2022/06/09 17:27:46;;;;;;;;;;;;;;;21.65;40.05859;101866.6;;;;-80
2022/06/09 17:32:46;;;;;;;;;;;;;;;21.58;40.04199;101875.4;;;;-79
2022/06/09 17:37:46;;;;;;;;;;;;;;;21.5;40.7002;101880.8;;;;-78
2022/06/09 17:42:46;;;;;;;;;;;;;;;21.52;40.81641;101880.3;;;;-78
2022/06/09 17:43:59;;;;;;;9.1;1.4;;;;;;;;;;;;;-79
2022/06/09 17:47:48;;;;;;;;;;;;;;;21.2;41.21191;101884.4;;;;-77
2022/06/09 17:52:47;;;;;;;;;;;;;;;21.01;41.58398;101882;;;;-78
2022/06/09 17:57:46;;;;;;;;;;;;;;;21;42.06445;101892.3;;;;-77
2022/06/09 18:02:46;;;;;;;;;;;;;;;20.75;42.61426;101891.8;;;;-78
2022/06/09 18:07:46;;;;;;;;;;;;;;;20.54;42.26074;101898.4;;;;-78
2022/06/09 18:12:46;;;;;;;;;;;;;;;20.35;43.19238;101898.6;;;;-77
2022/06/09 18:14:03;;;;;;;5.7;1.6;;;;;;;;;;;;;-80
2022/06/09 18:18:05;;;;;;;;;;;;;;;20.69;42.79102;101897.4;;;;-81
2022/06/09 18:23:02;;;;;;;;;;;;;;;21.12;42.22461;101896.9;;;;-83
2022/06/09 18:53:16;;;;;;;;;;;;;;;21.42;42.49414;101896.9;;;;-81
2022/06/09 19:12:51;;;;;;;;;;;;;;;20.76;42.54492;101907.5;;;;-81
2022/06/09 19:14:55;;;;;;;4.6;1.3;;;;;;;;;;;;;-83
2022/06/09 19:16:03;;;;;;;;;;;;;;;20.37;43.00098;101904.9;;;;-81
2022/06/09 19:28:30;;;;;;;;;;;;;;;;;;;;;
2022/06/09 19:32:32;;;;;;;;;;;;;;;20.03;43.31055;101924.6;;;;-87
2022/06/09 19:36:51;;;;;;;;;;;;;;;19.36;44.51172;101927.2;;;;-89
2022/06/09 19:42:27;;;;;;;;;;;;;;;19.45;44.52051;101930.3;;;;-82
2022/06/09 19:44:05;;;;;;;;;;;;;;;19.37;44.44434;101924.5;;;;-81
2022/06/09 19:44:58;;;;;;;4.6;1.3;;;;;;;;;;;;;-81
2022/06/09 19:57:28;;;;;;;;;;;;;;;18.39;46.06641;101945;;;;-83
2022/06/09 20:07:30;;;;;;;;;;;;;;;18.01;47.03711;101946;;;;-81
2022/06/09 20:12:15;;;;;;;;;;;;;;;17.82;47.31348;101954.3;;;;-81
2022/06/09 20:15:24;;;;;;;;;;;;;;;18.06;47.45117;101958.3;;;;-82
2022/06/09 20:25:13;;;;;;;;;;;;;;;17.37;48.77344;101975.5;;;;-90
2022/06/09 20:30:14;;;;;;;;;;;;;;;17.19;49.25293;101978.1;;;;-91
2022/06/09 20:35:12;;;;;;;;;;;;;;;17.01;49.58398;101973.8;;;;-91
2022/06/09 21:00:37;;;;;;;;;;;;;;;16.55;51.00391;101978.2;;;;-80
2022/06/09 21:03:08;;;;;;;;;;;;;;;16.23;51.44141;101972.8;;;;-80
2022/06/09 21:08:07;;;;;;;;;;;;;;;16.11;51.43848;101978.5;;;;-83
2022/06/09 21:22:59;;;;;;;;;;;;;;;15.82;52.19531;101988.3;;;;-81
2022/06/09 21:28:04;;;;;;;;;;;;;;;15.72;52.47656;101989.3;;;;-82
2022/06/09 21:32:53;;;;;;;;;;;;;;;15.63;52.45605;101992.1;;;;-81
2022/06/09 21:37:53;;;;;;;;;;;;;;;15.54;53.13379;101989.1;;;;-81
2022/06/09 21:42:57;;;;;;;;;;;;;;;15.46;53.17969;101991.8;;;;-82
2022/06/09 21:44:24;;;;;;;6.8;1.4;;;;;;;;;;;;;-81
2022/06/09 21:48:15;;;;;;;;;;;;;;;15.36;53.31543;101992.7;;;;-82
2022/06/09 21:53:01;;;;;;;;;;;;;;;15.3;53.39844;101996;;;;-80
2022/06/09 21:57:54;;;;;;;;;;;;;;;15.22;53.7373;102000.7;;;;-81
2022/06/09 22:02:55;;;;;;;;;;;;;;;15.15;53.89844;101998.9;;;;-81
2022/06/09 22:07:54;;;;;;;;;;;;;;;15.07;54.01172;101997.3;;;;-81
2022/06/09 22:12:53;;;;;;;;;;;;;;;14.99;54.4873;102004.5;;;;-80
2022/06/09 22:14:23;;;;;;;4.9;1.4;;;;;;;;;;;;;-80
2022/06/09 22:17:56;;;;;;;;;;;;;;;14.9;55.18457;102010.2;;;;-79
2022/06/09 22:22:57;;;;;;;;;;;;;;;14.84;55.08691;102017.2;;;;-80
2022/06/09 22:28:02;;;;;;;;;;;;;;;14.78;55.61914;102019;;;;-81
2022/06/09 22:33:29;;;;;;;;;;;;;;;14.98;55.52051;102023;;;;-80
2022/06/09 22:35:50;;;;;;;;;;;;;;;14.7;56.17285;102024.2;;;;-80
2022/06/09 22:41:03;;;;;;;;;;;;;;;14.67;56.02246;102022;;;;-80
2022/06/09 22:44:29;;;;;;;5.4;1.4;;;;;;;;;;;;;-80
2022/06/09 22:45:50;;;;;;;;;;;;;;;14.63;56.32227;102024.5;;;;-79
2022/06/09 22:50:49;;;;;;;;;;;;;;;14.6;57.10449;102023.7;;;;-81
2022/06/09 23:00:51;;;;;;;;;;;;;;;14.49;57.5293;102017.8;;;;-82
2022/06/09 23:06:04;;;;;;;;;;;;;;;14.44;57.63477;102018.1;;;;-80
2022/06/09 23:10:52;;;;;;;;;;;;;;;14.43;57.59961;102022;;;;-80
2022/06/09 23:14:47;;;;;;;7.5;1.4;;;;;;;;;;;;;-81
2022/06/09 23:16:04;;;;;;;;;;;;;;;14.39;57.81934;102023.3;;;;-80
2022/06/09 23:20:56;;;;;;;;;;;;;;;14.37;58.33301;102028.5;;;;-81
2022/06/09 23:25:56;;;;;;;;;;;;;;;14.33;57.93457;102031.9;;;;-79
2022/06/09 23:31:00;;;;;;;;;;;;;;;14.29;58.09863;102029;;;;-81
2022/06/09 23:35:59;;;;;;;;;;;;;;;14.26;57.99219;102029.4;;;;-82
2022/06/09 23:41:01;;;;;;;;;;;;;;;14.22;57.75195;102025.4;;;;-81
2022/06/09 23:45:55;;;;;;;;;;;;;;;14.16;57.77832;102027.5;;;;-80
2022/06/09 23:50:57;;;;;;;;;;;;;;;14.09;57.74609;102023;;;;-79
2022/06/09 23:55:58;;;;;;;;;;;;;;;14.08;57.8125;102027.7;;;;-81
